sensor_id;sensor_type;location;lat;lon;timestamp;P1;durP1;ratioP1;P2;durP2;ratioP2
18568;SDS011;14780;48.316;-1.050;2023-02-21T00:01:33;4.35;;;3.30;;
18568;SDS011;14780;48.316;-1.050;2023-02-21T00:04:36;5.75;;;3.35;;
18568;SDS011;14780;48.316;-1.050;2023-02-21T00:07:39;5.90;;;3.70;;
18568;SDS011;14780;48.316;-1.050;2023-02-21T00:10:43;5.30;;;3.53;;
18568;SDS011;14780;48.316;-1.050;2023-02-21T00:13:46;4.47;;;3.55;;
18568;SDS011;14780;48.316;-1.050;2023-02-21T00:16:50;4.78;;;3.50;;
18568;SDS011;14780;48.316;-1.050;2023-02-21T00:19:53;4.40;;;3.05;;
18568;SDS011;14780;48.316;-1.050;2023-02-21T00:22:57;3.92;;;3.10;;
18568;SDS011;14780;48.316;-1.050;2023-02-21T00:26:00;5.28;;;3.40;;
18568;SDS011;14780;48.316;-1.050;2023-02-21T00:29:04;3.83;;;2.92;;
18568;SDS011;14780;48.316;-1.050;2023-02-21T00:32:08;5.70;;;3.50;;
18568;SDS011;14780;48.316;-1.050;2023-02-21T00:35:12;4.05;;;3.05;;
18568;SDS011;14780;48.316;-1.050;2023-02-21T00:38:15;4.63;;;3.08;;
18568;SDS011;14780;48.316;-1.050;2023-02-21T00:41:20;4.65;;;3.33;;
18568;SDS011;14780;48.316;-1.050;2023-02-21T00:44:23;4.43;;;3.45;;
18568;SDS011;14780;48.316;-1.050;2023-02-21T00:47:27;4.47;;;3.17;;
18568;SDS011;14780;48.316;-1.050;2023-02-21T00:50:30;4.75;;;3.38;;
18568;SDS011;14780;48.316;-1.050;2023-02-21T00:53:34;4.75;;;3.25;;
18568;SDS011;14780;48.316;-1.050;2023-02-21T00:56:37;4.38;;;3.28;;
18568;SDS011;14780;48.316;-1.050;2023-02-21T00:59:41;5.05;;;3.70;;
18568;SDS011;14780;48.316;-1.050;2023-02-21T01:02:44;4.90;;;3.33;;
18568;SDS011;14780;48.316;-1.050;2023-02-21T01:05:48;4.43;;;3.45;;
18568;SDS011;14780;48.316;-1.050;2023-02-21T01:08:52;4.80;;;3.50;;
18568;SDS011;14780;48.316;-1.050;2023-02-21T01:11:55;4.53;;;3.38;;
18568;SDS011;14780;48.316;-1.050;2023-02-21T01:14:59;4.13;;;3.10;;
18568;SDS011;14780;48.316;-1.050;2023-02-21T01:18:03;4.72;;;3.40;;
18568;SDS011;14780;48.316;-1.050;2023-02-21T01:21:11;3.95;;;2.85;;
18568;SDS011;14780;48.316;-1.050;2023-02-21T01:24:16;3.40;;;2.88;;
18568;SDS011;14780;48.316;-1.050;2023-02-21T01:27:19;4.80;;;3.20;;
18568;SDS011;14780;48.316;-1.050;2023-02-21T01:30:22;5.53;;;3.58;;
18568;SDS011;14780;48.316;-1.050;2023-02-21T01:33:26;3.38;;;2.72;;
18568;SDS011;14780;48.316;-1.050;2023-02-21T01:36:30;3.78;;;3.00;;
18568;SDS011;14780;48.316;-1.050;2023-02-21T01:39:33;4.00;;;3.17;;
18568;SDS011;14780;48.316;-1.050;2023-02-21T01:42:37;3.95;;;3.13;;
18568;SDS011;14780;48.316;-1.050;2023-02-21T01:45:42;3.83;;;2.80;;
18568;SDS011;14780;48.316;-1.050;2023-02-21T01:48:53;4.63;;;3.28;;
18568;SDS011;14780;48.316;-1.050;2023-02-21T01:51:58;4.68;;;3.17;;
18568;SDS011;14780;48.316;-1.050;2023-02-21T01:55:05;4.80;;;3.08;;
18568;SDS011;14780;48.316;-1.050;2023-02-21T01:58:10;3.77;;;2.90;;
18568;SDS011;14780;48.316;-1.050;2023-02-21T02:01:17;4.72;;;3.00;;
18568;SDS011;14780;48.316;-1.050;2023-02-21T02:04:30;3.38;;;2.60;;
18568;SDS011;14780;48.316;-1.050;2023-02-21T02:07:34;5.07;;;3.10;;
18568;SDS011;14780;48.316;-1.050;2023-02-21T02:10:38;3.50;;;2.70;;
18568;SDS011;14780;48.316;-1.050;2023-02-21T02:17:05;3.95;;;2.97;;
18568;SDS011;14780;48.316;-1.050;2023-02-21T02:35:36;3.30;;;2.33;;
18568;SDS011;14780;48.316;-1.050;2023-02-21T02:38:36;3.20;;;2.50;;
18568;SDS011;14780;48.316;-1.050;2023-02-21T02:41:44;3.92;;;2.75;;
18568;SDS011;14780;48.316;-1.050;2023-02-21T02:44:51;4.53;;;2.70;;
18568;SDS011;14780;48.316;-1.050;2023-02-21T02:47:43;3.60;;;2.50;;
18568;SDS011;14780;48.316;-1.050;2023-02-21T02:50:33;4.50;;;2.88;;
18568;SDS011;14780;48.316;-1.050;2023-02-21T02:53:23;3.03;;;2.53;;
18568;SDS011;14780;48.316;-1.050;2023-02-21T02:56:11;4.47;;;2.70;;
18568;SDS011;14780;48.316;-1.050;2023-02-21T02:59:41;3.58;;;2.70;;
18568;SDS011;14780;48.316;-1.050;2023-02-21T03:05:24;4.10;;;2.85;;
18568;SDS011;14780;48.316;-1.050;2023-02-21T03:11:19;3.58;;;2.53;;
18568;SDS011;14780;48.316;-1.050;2023-02-21T03:17:02;3.25;;;2.40;;
18568;SDS011;14780;48.316;-1.050;2023-02-21T03:19:52;3.35;;;2.45;;
18568;SDS011;14780;48.316;-1.050;2023-02-21T03:22:39;4.03;;;2.80;;
18568;SDS011;14780;48.316;-1.050;2023-02-21T03:25:25;3.58;;;2.42;;
18568;SDS011;14780;48.316;-1.050;2023-02-21T03:28:12;3.80;;;2.60;;
18568;SDS011;14780;48.316;-1.050;2023-02-21T03:30:57;3.65;;;2.45;;
18568;SDS011;14780;48.316;-1.050;2023-02-21T03:33:44;4.07;;;2.38;;
18568;SDS011;14780;48.316;-1.050;2023-02-21T03:36:29;3.50;;;2.50;;
18568;SDS011;14780;48.316;-1.050;2023-02-21T03:39:14;4.05;;;2.50;;
18568;SDS011;14780;48.316;-1.050;2023-02-21T03:41:59;3.60;;;2.70;;
18568;SDS011;14780;48.316;-1.050;2023-02-21T03:44:44;3.33;;;2.40;;
18568;SDS011;14780;48.316;-1.050;2023-02-21T03:47:28;3.90;;;2.72;;
18568;SDS011;14780;48.316;-1.050;2023-02-21T03:50:13;3.88;;;2.58;;
18568;SDS011;14780;48.316;-1.050;2023-02-21T03:52:58;3.30;;;2.55;;
18568;SDS011;14780;48.316;-1.050;2023-02-21T03:55:42;3.10;;;2.40;;
18568;SDS011;14780;48.316;-1.050;2023-02-21T03:58:27;3.75;;;2.58;;
18568;SDS011;14780;48.316;-1.050;2023-02-21T04:01:12;3.03;;;2.20;;
18568;SDS011;14780;48.316;-1.050;2023-02-21T04:03:57;4.03;;;2.67;;
18568;SDS011;14780;48.316;-1.050;2023-02-21T04:06:42;3.53;;;2.50;;
18568;SDS011;14780;48.316;-1.050;2023-02-21T04:09:27;3.25;;;2.33;;
18568;SDS011;14780;48.316;-1.050;2023-02-21T04:12:11;3.17;;;2.33;;
18568;SDS011;14780;48.316;-1.050;2023-02-21T04:14:56;3.42;;;2.35;;
18568;SDS011;14780;48.316;-1.050;2023-02-21T04:17:41;3.10;;;2.28;;
18568;SDS011;14780;48.316;-1.050;2023-02-21T04:20:26;4.30;;;2.50;;
18568;SDS011;14780;48.316;-1.050;2023-02-21T04:23:10;3.42;;;2.50;;
18568;SDS011;14780;48.316;-1.050;2023-02-21T04:25:58;2.53;;;2.15;;
18568;SDS011;14780;48.316;-1.050;2023-02-21T04:28:42;4.20;;;2.30;;
18568;SDS011;14780;48.316;-1.050;2023-02-21T04:31:27;5.13;;;2.45;;
18568;SDS011;14780;48.316;-1.050;2023-02-21T04:34:11;5.28;;;2.47;;
18568;SDS011;14780;48.316;-1.050;2023-02-21T04:36:57;3.22;;;2.35;;
18568;SDS011;14780;48.316;-1.050;2023-02-21T04:39:41;2.83;;;2.20;;
18568;SDS011;14780;48.316;-1.050;2023-02-21T04:42:26;4.93;;;2.35;;
18568;SDS011;14780;48.316;-1.050;2023-02-21T04:45:11;3.30;;;2.20;;
18568;SDS011;14780;48.316;-1.050;2023-02-21T04:47:56;2.97;;;2.30;;
18568;SDS011;14780;48.316;-1.050;2023-02-21T04:50:40;2.55;;;2.20;;
18568;SDS011;14780;48.316;-1.050;2023-02-21T04:53:25;4.07;;;2.72;;
18568;SDS011;14780;48.316;-1.050;2023-02-21T04:56:10;3.20;;;2.25;;
18568;SDS011;14780;48.316;-1.050;2023-02-21T04:58:55;3.28;;;2.55;;
18568;SDS011;14780;48.316;-1.050;2023-02-21T05:01:40;2.72;;;2.22;;
18568;SDS011;14780;48.316;-1.050;2023-02-21T05:04:25;3.03;;;2.35;;
18568;SDS011;14780;48.316;-1.050;2023-02-21T05:07:10;3.33;;;2.20;;
18568;SDS011;14780;48.316;-1.050;2023-02-21T05:09:55;3.10;;;2.30;;
18568;SDS011;14780;48.316;-1.050;2023-02-21T05:12:39;3.05;;;2.10;;
18568;SDS011;14780;48.316;-1.050;2023-02-21T05:15:25;3.42;;;2.42;;
18568;SDS011;14780;48.316;-1.050;2023-02-21T05:18:09;3.35;;;2.38;;
18568;SDS011;14780;48.316;-1.050;2023-02-21T05:20:54;3.78;;;2.30;;
18568;SDS011;14780;48.316;-1.050;2023-02-21T05:23:40;3.13;;;2.35;;
18568;SDS011;14780;48.316;-1.050;2023-02-21T05:26:26;3.25;;;2.47;;
18568;SDS011;14780;48.316;-1.050;2023-02-21T05:29:16;3.33;;;2.40;;
18568;SDS011;14780;48.316;-1.050;2023-02-21T05:32:01;3.70;;;2.28;;
18568;SDS011;14780;48.316;-1.050;2023-02-21T05:34:46;2.38;;;2.05;;
18568;SDS011;14780;48.316;-1.050;2023-02-21T05:37:31;3.72;;;2.28;;
18568;SDS011;14780;48.316;-1.050;2023-02-21T05:40:15;3.88;;;2.45;;
18568;SDS011;14780;48.316;-1.050;2023-02-21T05:43:00;5.93;;;2.40;;
18568;SDS011;14780;48.316;-1.050;2023-02-21T05:45:45;2.92;;;2.30;;
18568;SDS011;14780;48.316;-1.050;2023-02-21T05:48:30;2.53;;;2.00;;
18568;SDS011;14780;48.316;-1.050;2023-02-21T05:51:14;2.53;;;2.03;;
18568;SDS011;14780;48.316;-1.050;2023-02-21T05:53:59;3.60;;;2.10;;
18568;SDS011;14780;48.316;-1.050;2023-02-21T05:56:45;3.45;;;2.30;;
18568;SDS011;14780;48.316;-1.050;2023-02-21T05:59:33;2.72;;;2.00;;
18568;SDS011;14780;48.316;-1.050;2023-02-21T06:02:17;3.22;;;2.38;;
18568;SDS011;14780;48.316;-1.050;2023-02-21T06:05:02;4.13;;;2.30;;
18568;SDS011;14780;48.316;-1.050;2023-02-21T06:07:47;3.38;;;2.53;;
18568;SDS011;14780;48.316;-1.050;2023-02-21T06:10:32;3.83;;;2.20;;
18568;SDS011;14780;48.316;-1.050;2023-02-21T06:13:17;2.90;;;2.10;;
18568;SDS011;14780;48.316;-1.050;2023-02-21T06:16:01;2.85;;;2.20;;
18568;SDS011;14780;48.316;-1.050;2023-02-21T06:18:50;3.13;;;2.25;;
18568;SDS011;14780;48.316;-1.050;2023-02-21T06:21:36;3.42;;;2.20;;
18568;SDS011;14780;48.316;-1.050;2023-02-21T06:24:21;2.33;;;1.90;;
18568;SDS011;14780;48.316;-1.050;2023-02-21T06:27:06;3.47;;;2.20;;
18568;SDS011;14780;48.316;-1.050;2023-02-21T06:29:51;2.47;;;1.98;;
18568;SDS011;14780;48.316;-1.050;2023-02-21T06:32:36;2.78;;;2.10;;
18568;SDS011;14780;48.316;-1.050;2023-02-21T06:35:20;3.53;;;2.03;;
18568;SDS011;14780;48.316;-1.050;2023-02-21T06:38:05;2.83;;;2.20;;
18568;SDS011;14780;48.316;-1.050;2023-02-21T06:40:49;3.00;;;2.17;;
18568;SDS011;14780;48.316;-1.050;2023-02-21T06:43:34;3.13;;;2.40;;
18568;SDS011;14780;48.316;-1.050;2023-02-21T06:46:20;3.72;;;2.28;;
18568;SDS011;14780;48.316;-1.050;2023-02-21T06:49:06;3.30;;;2.10;;
18568;SDS011;14780;48.316;-1.050;2023-02-21T06:51:51;2.72;;;2.08;;
18568;SDS011;14780;48.316;-1.050;2023-02-21T06:54:36;2.88;;;2.20;;
18568;SDS011;14780;48.316;-1.050;2023-02-21T06:57:22;3.58;;;2.47;;
18568;SDS011;14780;48.316;-1.050;2023-02-21T07:00:07;4.35;;;2.03;;
18568;SDS011;14780;48.316;-1.050;2023-02-21T07:02:52;4.07;;;2.40;;
18568;SDS011;14780;48.316;-1.050;2023-02-21T07:05:37;3.47;;;2.58;;
18568;SDS011;14780;48.316;-1.050;2023-02-21T07:08:22;3.65;;;2.40;;
18568;SDS011;14780;48.316;-1.050;2023-02-21T07:11:09;4.28;;;2.67;;
18568;SDS011;14780;48.316;-1.050;2023-02-21T07:13:54;3.70;;;2.40;;
18568;SDS011;14780;48.316;-1.050;2023-02-21T07:16:42;3.90;;;2.25;;
18568;SDS011;14780;48.316;-1.050;2023-02-21T07:19:27;3.58;;;2.38;;
18568;SDS011;14780;48.316;-1.050;2023-02-21T07:22:11;4.55;;;2.40;;
18568;SDS011;14780;48.316;-1.050;2023-02-21T07:24:56;3.92;;;2.40;;
18568;SDS011;14780;48.316;-1.050;2023-02-21T07:27:40;4.45;;;2.50;;
18568;SDS011;14780;48.316;-1.050;2023-02-21T07:30:25;3.30;;;2.50;;
18568;SDS011;14780;48.316;-1.050;2023-02-21T07:33:10;2.53;;;2.05;;
18568;SDS011;14780;48.316;-1.050;2023-02-21T07:35:55;3.70;;;2.15;;
18568;SDS011;14780;48.316;-1.050;2023-02-21T07:38:39;2.97;;;2.20;;
18568;SDS011;14780;48.316;-1.050;2023-02-21T07:41:24;3.78;;;2.30;;
18568;SDS011;14780;48.316;-1.050;2023-02-21T07:44:09;3.35;;;2.33;;
18568;SDS011;14780;48.316;-1.050;2023-02-21T07:46:54;3.58;;;2.28;;
18568;SDS011;14780;48.316;-1.050;2023-02-21T07:49:40;3.17;;;2.15;;
18568;SDS011;14780;48.316;-1.050;2023-02-21T07:52:24;5.55;;;2.40;;
18568;SDS011;14780;48.316;-1.050;2023-02-21T07:55:09;3.45;;;2.40;;
18568;SDS011;14780;48.316;-1.050;2023-02-21T07:57:55;4.03;;;2.35;;
18568;SDS011;14780;48.316;-1.050;2023-02-21T08:00:40;4.25;;;2.50;;
18568;SDS011;14780;48.316;-1.050;2023-02-21T08:03:25;7.10;;;2.50;;
18568;SDS011;14780;48.316;-1.050;2023-02-21T08:06:11;4.88;;;2.50;;
18568;SDS011;14780;48.316;-1.050;2023-02-21T08:08:56;2.88;;;2.15;;
18568;SDS011;14780;48.316;-1.050;2023-02-21T08:11:41;4.20;;;2.47;;
18568;SDS011;14780;48.316;-1.050;2023-02-21T08:14:25;3.75;;;2.38;;
18568;SDS011;14780;48.316;-1.050;2023-02-21T08:17:10;4.47;;;2.30;;
18568;SDS011;14780;48.316;-1.050;2023-02-21T08:19:56;4.22;;;2.55;;
18568;SDS011;14780;48.316;-1.050;2023-02-21T08:22:41;3.95;;;2.25;;
18568;SDS011;14780;48.316;-1.050;2023-02-21T08:25:26;4.38;;;2.47;;
18568;SDS011;14780;48.316;-1.050;2023-02-21T08:28:11;3.10;;;2.20;;
18568;SDS011;14780;48.316;-1.050;2023-02-21T08:30:56;3.53;;;2.58;;
18568;SDS011;14780;48.316;-1.050;2023-02-21T08:33:41;3.90;;;2.35;;
18568;SDS011;14780;48.316;-1.050;2023-02-21T08:36:34;5.85;;;2.40;;
18568;SDS011;14780;48.316;-1.050;2023-02-21T08:39:20;2.58;;;2.03;;
18568;SDS011;14780;48.316;-1.050;2023-02-21T08:42:06;3.00;;;2.15;;
18568;SDS011;14780;48.316;-1.050;2023-02-21T08:44:50;3.55;;;2.20;;
18568;SDS011;14780;48.316;-1.050;2023-02-21T08:47:35;3.22;;;2.42;;
18568;SDS011;14780;48.316;-1.050;2023-02-21T08:50:21;4.65;;;2.55;;
18568;SDS011;14780;48.316;-1.050;2023-02-21T08:53:06;9.00;;;2.42;;
18568;SDS011;14780;48.316;-1.050;2023-02-21T08:55:52;4.53;;;2.50;;
18568;SDS011;14780;48.316;-1.050;2023-02-21T08:58:37;5.72;;;2.30;;
18568;SDS011;14780;48.316;-1.050;2023-02-21T09:01:22;3.72;;;2.10;;
18568;SDS011;14780;48.316;-1.050;2023-02-21T09:04:13;4.85;;;2.40;;
18568;SDS011;14780;48.316;-1.050;2023-02-21T09:06:57;6.63;;;2.50;;
18568;SDS011;14780;48.316;-1.050;2023-02-21T09:09:42;3.65;;;2.50;;
18568;SDS011;14780;48.316;-1.050;2023-02-21T09:12:27;4.45;;;2.35;;
18568;SDS011;14780;48.316;-1.050;2023-02-21T09:15:15;4.10;;;2.22;;
18568;SDS011;14780;48.316;-1.050;2023-02-21T09:18:00;3.90;;;2.15;;
18568;SDS011;14780;48.316;-1.050;2023-02-21T09:20:45;4.35;;;2.40;;
18568;SDS011;14780;48.316;-1.050;2023-02-21T09:23:34;5.82;;;2.47;;
18568;SDS011;14780;48.316;-1.050;2023-02-21T09:26:18;5.72;;;2.50;;
18568;SDS011;14780;48.316;-1.050;2023-02-21T09:29:06;5.00;;;2.45;;
18568;SDS011;14780;48.316;-1.050;2023-02-21T09:31:51;4.13;;;2.50;;
18568;SDS011;14780;48.316;-1.050;2023-02-21T09:34:36;5.68;;;2.47;;
18568;SDS011;14780;48.316;-1.050;2023-02-21T09:37:22;4.82;;;2.38;;
18568;SDS011;14780;48.316;-1.050;2023-02-21T09:40:12;3.35;;;2.40;;
18568;SDS011;14780;48.316;-1.050;2023-02-21T09:42:59;4.40;;;2.13;;
18568;SDS011;14780;48.316;-1.050;2023-02-21T09:45:46;3.28;;;2.20;;
18568;SDS011;14780;48.316;-1.050;2023-02-21T09:48:32;4.45;;;2.20;;
18568;SDS011;14780;48.316;-1.050;2023-02-21T09:51:17;3.22;;;2.10;;
18568;SDS011;14780;48.316;-1.050;2023-02-21T09:54:01;4.80;;;2.22;;
18568;SDS011;14780;48.316;-1.050;2023-02-21T09:56:48;4.00;;;2.35;;
18568;SDS011;14780;48.316;-1.050;2023-02-21T09:59:33;3.83;;;2.20;;
18568;SDS011;14780;48.316;-1.050;2023-02-21T10:08:08;4.22;;;2.47;;
18568;SDS011;14780;48.316;-1.050;2023-02-21T10:17:09;4.00;;;2.60;;
18568;SDS011;14780;48.316;-1.050;2023-02-21T10:20:01;3.53;;;2.25;;
18568;SDS011;14780;48.316;-1.050;2023-02-21T10:22:54;4.25;;;2.25;;
18568;SDS011;14780;48.316;-1.050;2023-02-21T10:25:41;4.63;;;2.40;;
18568;SDS011;14780;48.316;-1.050;2023-02-21T10:28:28;2.85;;;2.22;;
18568;SDS011;14780;48.316;-1.050;2023-02-21T10:31:24;3.50;;;2.50;;
18568;SDS011;14780;48.316;-1.050;2023-02-21T10:34:18;3.17;;;2.03;;
18568;SDS011;14780;48.316;-1.050;2023-02-21T10:40:35;3.15;;;2.20;;
18568;SDS011;14780;48.316;-1.050;2023-02-21T10:43:34;5.38;;;2.60;;
18568;SDS011;14780;48.316;-1.050;2023-02-21T10:49:22;4.45;;;2.53;;
18568;SDS011;14780;48.316;-1.050;2023-02-21T10:52:18;4.18;;;2.60;;
18568;SDS011;14780;48.316;-1.050;2023-02-21T10:55:14;4.07;;;2.60;;
18568;SDS011;14780;48.316;-1.050;2023-02-21T10:58:08;6.80;;;2.40;;
18568;SDS011;14780;48.316;-1.050;2023-02-21T11:01:11;4.85;;;2.28;;
18568;SDS011;14780;48.316;-1.050;2023-02-21T11:04:03;3.15;;;2.10;;
18568;SDS011;14780;48.316;-1.050;2023-02-21T11:07:01;10.38;;;2.72;;
18568;SDS011;14780;48.316;-1.050;2023-02-21T11:09:52;5.55;;;2.42;;
18568;SDS011;14780;48.316;-1.050;2023-02-21T11:12:38;5.05;;;2.60;;
18568;SDS011;14780;48.316;-1.050;2023-02-21T11:15:23;8.98;;;2.58;;
18568;SDS011;14780;48.316;-1.050;2023-02-21T11:18:12;7.07;;;2.47;;
18568;SDS011;14780;48.316;-1.050;2023-02-21T11:21:11;3.63;;;2.45;;
18568;SDS011;14780;48.316;-1.050;2023-02-21T11:24:00;4.43;;;2.38;;
18568;SDS011;14780;48.316;-1.050;2023-02-21T11:26:47;3.88;;;2.20;;
18568;SDS011;14780;48.316;-1.050;2023-02-21T11:29:35;4.95;;;2.70;;
18568;SDS011;14780;48.316;-1.050;2023-02-21T11:32:26;6.78;;;2.67;;
18568;SDS011;14780;48.316;-1.050;2023-02-21T11:38:32;10.57;;;3.90;;
18568;SDS011;14780;48.316;-1.050;2023-02-21T11:47:26;7.43;;;2.78;;
18568;SDS011;14780;48.316;-1.050;2023-02-21T11:50:21;6.13;;;2.83;;
18568;SDS011;14780;48.316;-1.050;2023-02-21T11:53:25;8.25;;;3.15;;
18568;SDS011;14780;48.316;-1.050;2023-02-21T12:06:01;6.68;;;3.10;;
18568;SDS011;14780;48.316;-1.050;2023-02-21T12:09:09;7.35;;;2.88;;
18568;SDS011;14780;48.316;-1.050;2023-02-21T12:18:57;5.55;;;3.10;;
18568;SDS011;14780;48.316;-1.050;2023-02-21T12:36:17;5.23;;;2.60;;
18568;SDS011;14780;48.316;-1.050;2023-02-21T12:39:20;5.60;;;3.00;;
18568;SDS011;14780;48.316;-1.050;2023-02-21T12:52:56;5.38;;;2.67;;
18568;SDS011;14780;48.316;-1.050;2023-02-21T12:55:47;7.55;;;2.58;;
18568;SDS011;14780;48.316;-1.050;2023-02-21T13:01:32;5.20;;;2.70;;
18568;SDS011;14780;48.316;-1.050;2023-02-21T13:07:36;5.07;;;2.78;;
18568;SDS011;14780;48.316;-1.050;2023-02-21T13:10:42;5.32;;;2.78;;
18568;SDS011;14780;48.316;-1.050;2023-02-21T13:13:35;6.65;;;2.75;;
18568;SDS011;14780;48.316;-1.050;2023-02-21T13:16:20;4.07;;;2.80;;
18568;SDS011;14780;48.316;-1.050;2023-02-21T13:19:07;4.53;;;2.58;;
18568;SDS011;14780;48.316;-1.050;2023-02-21T13:22:08;6.13;;;2.65;;
18568;SDS011;14780;48.316;-1.050;2023-02-21T13:28:39;3.47;;;2.30;;
18568;SDS011;14780;48.316;-1.050;2023-02-21T13:31:34;5.10;;;3.00;;
18568;SDS011;14780;48.316;-1.050;2023-02-21T13:34:28;5.82;;;2.67;;
18568;SDS011;14780;48.316;-1.050;2023-02-21T13:37:19;4.13;;;2.80;;
18568;SDS011;14780;48.316;-1.050;2023-02-21T13:40:17;3.50;;;2.60;;
18568;SDS011;14780;48.316;-1.050;2023-02-21T13:43:26;3.45;;;2.30;;
18568;SDS011;14780;48.316;-1.050;2023-02-21T13:52:49;3.88;;;2.67;;
18568;SDS011;14780;48.316;-1.050;2023-02-21T13:58:49;3.45;;;2.50;;
18568;SDS011;14780;48.316;-1.050;2023-02-21T14:01:38;3.63;;;2.40;;
18568;SDS011;14780;48.316;-1.050;2023-02-21T14:13:38;3.30;;;2.17;;
18568;SDS011;14780;48.316;-1.050;2023-02-21T14:16:32;6.75;;;2.80;;
18568;SDS011;14780;48.316;-1.050;2023-02-21T14:19:33;3.60;;;2.30;;
18568;SDS011;14780;48.316;-1.050;2023-02-21T14:22:42;4.15;;;2.47;;
18568;SDS011;14780;48.316;-1.050;2023-02-21T14:25:27;4.03;;;2.75;;
18568;SDS011;14780;48.316;-1.050;2023-02-21T14:34:57;4.85;;;2.60;;
18568;SDS011;14780;48.316;-1.050;2023-02-21T14:38:05;4.13;;;2.55;;
18568;SDS011;14780;48.316;-1.050;2023-02-21T14:41:01;4.85;;;2.58;;
18568;SDS011;14780;48.316;-1.050;2023-02-21T14:44:10;4.10;;;2.30;;
18568;SDS011;14780;48.316;-1.050;2023-02-21T14:56:54;4.05;;;2.60;;
18568;SDS011;14780;48.316;-1.050;2023-02-21T15:00:24;4.95;;;2.55;;
18568;SDS011;14780;48.316;-1.050;2023-02-21T15:03:20;4.35;;;2.70;;
18568;SDS011;14780;48.316;-1.050;2023-02-21T15:06:12;5.28;;;2.30;;
18568;SDS011;14780;48.316;-1.050;2023-02-21T15:09:17;5.72;;;2.78;;
18568;SDS011;14780;48.316;-1.050;2023-02-21T15:12:25;5.10;;;3.13;;
18568;SDS011;14780;48.316;-1.050;2023-02-21T15:15:13;9.55;;;3.28;;
18568;SDS011;14780;48.316;-1.050;2023-02-21T15:24:10;5.45;;;3.17;;
18568;SDS011;14780;48.316;-1.050;2023-02-21T15:27:07;9.05;;;3.60;;
18568;SDS011;14780;48.316;-1.050;2023-02-21T15:30:07;8.55;;;3.20;;
18568;SDS011;14780;48.316;-1.050;2023-02-21T15:36:04;6.65;;;3.05;;
18568;SDS011;14780;48.316;-1.050;2023-02-21T15:38:53;5.95;;;3.10;;
18568;SDS011;14780;48.316;-1.050;2023-02-21T15:41:44;8.93;;;3.28;;
18568;SDS011;14780;48.316;-1.050;2023-02-21T15:44:33;5.90;;;2.88;;
18568;SDS011;14780;48.316;-1.050;2023-02-21T15:47:26;5.03;;;2.90;;
18568;SDS011;14780;48.316;-1.050;2023-02-21T15:50:16;5.28;;;2.65;;
18568;SDS011;14780;48.316;-1.050;2023-02-21T15:53:11;7.30;;;2.75;;
18568;SDS011;14780;48.316;-1.050;2023-02-21T15:56:15;5.55;;;2.85;;
18568;SDS011;14780;48.316;-1.050;2023-02-21T16:04:59;6.57;;;2.90;;
18568;SDS011;14780;48.316;-1.050;2023-02-21T16:07:43;3.70;;;2.70;;
18568;SDS011;14780;48.316;-1.050;2023-02-21T16:10:33;4.18;;;2.80;;
18568;SDS011;14780;48.316;-1.050;2023-02-21T16:13:19;6.22;;;2.90;;
18568;SDS011;14780;48.316;-1.050;2023-02-21T16:16:04;4.45;;;2.97;;
18568;SDS011;14780;48.316;-1.050;2023-02-21T16:18:53;4.45;;;3.25;;
18568;SDS011;14780;48.316;-1.050;2023-02-21T16:21:39;5.75;;;2.72;;
18568;SDS011;14780;48.316;-1.050;2023-02-21T16:27:14;4.20;;;2.60;;
18568;SDS011;14780;48.316;-1.050;2023-02-21T16:30:01;4.55;;;2.60;;
18568;SDS011;14780;48.316;-1.050;2023-02-21T16:32:48;5.20;;;3.63;;
18568;SDS011;14780;48.316;-1.050;2023-02-21T16:35:35;4.72;;;3.10;;
18568;SDS011;14780;48.316;-1.050;2023-02-21T16:38:20;5.90;;;3.83;;
18568;SDS011;14780;48.316;-1.050;2023-02-21T16:41:10;5.93;;;3.60;;
18568;SDS011;14780;48.316;-1.050;2023-02-21T16:43:56;5.32;;;3.67;;
18568;SDS011;14780;48.316;-1.050;2023-02-21T16:46:41;6.43;;;3.83;;
18568;SDS011;14780;48.316;-1.050;2023-02-21T16:49:29;7.30;;;4.03;;
18568;SDS011;14780;48.316;-1.050;2023-02-21T16:52:14;7.10;;;3.58;;
18568;SDS011;14780;48.316;-1.050;2023-02-21T16:55:00;8.82;;;3.92;;
18568;SDS011;14780;48.316;-1.050;2023-02-21T16:57:46;7.72;;;3.72;;
18568;SDS011;14780;48.316;-1.050;2023-02-21T17:00:32;5.10;;;3.47;;
18568;SDS011;14780;48.316;-1.050;2023-02-21T17:03:17;5.68;;;3.10;;
18568;SDS011;14780;48.316;-1.050;2023-02-21T17:06:02;5.57;;;3.55;;
18568;SDS011;14780;48.316;-1.050;2023-02-21T17:08:48;6.03;;;3.63;;
18568;SDS011;14780;48.316;-1.050;2023-02-21T17:11:33;7.28;;;3.80;;
18568;SDS011;14780;48.316;-1.050;2023-02-21T17:14:18;5.78;;;3.78;;
18568;SDS011;14780;48.316;-1.050;2023-02-21T17:17:03;6.03;;;3.30;;
18568;SDS011;14780;48.316;-1.050;2023-02-21T17:19:48;5.07;;;3.40;;
18568;SDS011;14780;48.316;-1.050;2023-02-21T17:22:33;6.63;;;3.65;;
18568;SDS011;14780;48.316;-1.050;2023-02-21T17:25:19;7.40;;;3.47;;
18568;SDS011;14780;48.316;-1.050;2023-02-21T17:28:05;5.82;;;3.40;;
18568;SDS011;14780;48.316;-1.050;2023-02-21T17:30:50;5.18;;;3.20;;
18568;SDS011;14780;48.316;-1.050;2023-02-21T17:33:36;7.47;;;3.60;;
18568;SDS011;14780;48.316;-1.050;2023-02-21T17:36:25;6.05;;;3.35;;
18568;SDS011;14780;48.316;-1.050;2023-02-21T17:39:10;5.05;;;3.60;;
18568;SDS011;14780;48.316;-1.050;2023-02-21T17:41:59;5.38;;;3.60;;
18568;SDS011;14780;48.316;-1.050;2023-02-21T17:44:44;5.57;;;3.83;;
18568;SDS011;14780;48.316;-1.050;2023-02-21T17:47:34;5.22;;;3.53;;
18568;SDS011;14780;48.316;-1.050;2023-02-21T17:50:19;5.47;;;3.35;;
18568;SDS011;14780;48.316;-1.050;2023-02-21T17:53:04;6.05;;;3.75;;
18568;SDS011;14780;48.316;-1.050;2023-02-21T17:55:51;5.78;;;3.25;;
18568;SDS011;14780;48.316;-1.050;2023-02-21T17:58:36;5.57;;;3.72;;
18568;SDS011;14780;48.316;-1.050;2023-02-21T18:01:21;4.50;;;3.40;;
18568;SDS011;14780;48.316;-1.050;2023-02-21T18:04:06;5.13;;;3.25;;
18568;SDS011;14780;48.316;-1.050;2023-02-21T18:06:50;4.55;;;3.38;;
18568;SDS011;14780;48.316;-1.050;2023-02-21T18:09:35;5.70;;;3.30;;
18568;SDS011;14780;48.316;-1.050;2023-02-21T18:12:19;5.82;;;3.83;;
18568;SDS011;14780;48.316;-1.050;2023-02-21T18:15:05;6.40;;;3.40;;
18568;SDS011;14780;48.316;-1.050;2023-02-21T18:17:52;4.80;;;3.40;;
18568;SDS011;14780;48.316;-1.050;2023-02-21T18:20:37;5.60;;;3.67;;
18568;SDS011;14780;48.316;-1.050;2023-02-21T18:23:22;4.75;;;3.50;;
18568;SDS011;14780;48.316;-1.050;2023-02-21T18:26:16;5.10;;;3.70;;
18568;SDS011;14780;48.316;-1.050;2023-02-21T18:29:01;4.80;;;3.45;;
18568;SDS011;14780;48.316;-1.050;2023-02-21T18:31:51;5.50;;;3.67;;
18568;SDS011;14780;48.316;-1.050;2023-02-21T18:34:36;6.63;;;3.97;;
18568;SDS011;14780;48.316;-1.050;2023-02-21T18:37:21;7.22;;;3.80;;
18568;SDS011;14780;48.316;-1.050;2023-02-21T18:40:06;6.90;;;3.90;;
18568;SDS011;14780;48.316;-1.050;2023-02-21T18:42:52;5.47;;;3.72;;
18568;SDS011;14780;48.316;-1.050;2023-02-21T18:45:37;8.55;;;4.60;;
18568;SDS011;14780;48.316;-1.050;2023-02-21T18:48:23;8.15;;;4.10;;
18568;SDS011;14780;48.316;-1.050;2023-02-21T18:51:09;9.13;;;5.30;;
18568;SDS011;14780;48.316;-1.050;2023-02-21T18:53:56;7.90;;;5.05;;
18568;SDS011;14780;48.316;-1.050;2023-02-21T18:56:44;8.13;;;4.97;;
18568;SDS011;14780;48.316;-1.050;2023-02-21T18:59:33;8.20;;;4.82;;
18568;SDS011;14780;48.316;-1.050;2023-02-21T19:02:19;8.85;;;5.70;;
18568;SDS011;14780;48.316;-1.050;2023-02-21T19:05:03;17.95;;;8.18;;
18568;SDS011;14780;48.316;-1.050;2023-02-21T19:07:49;24.13;;;8.98;;
18568;SDS011;14780;48.316;-1.050;2023-02-21T19:10:35;30.85;;;9.43;;
18568;SDS011;14780;48.316;-1.050;2023-02-21T19:13:21;20.00;;;8.50;;
18568;SDS011;14780;48.316;-1.050;2023-02-21T19:16:05;28.83;;;9.00;;
18568;SDS011;14780;48.316;-1.050;2023-02-21T19:18:54;20.65;;;8.27;;
18568;SDS011;14780;48.316;-1.050;2023-02-21T19:21:39;15.13;;;7.43;;
18568;SDS011;14780;48.316;-1.050;2023-02-21T19:24:25;16.27;;;7.00;;
18568;SDS011;14780;48.316;-1.050;2023-02-21T19:27:10;18.77;;;7.90;;
18568;SDS011;14780;48.316;-1.050;2023-02-21T19:29:54;17.88;;;7.60;;